CheckWX is a tool to help pilots better visualize weather data.  It is not intended as a substitute for an official pre-flight weather briefing.

06:01:30 UTC

CYQY TAF
Sydney / J.A. Douglas McCurdy Airport
Sydney, Canada
TAF CYQY 200539Z 2006/2018 29010KT P6SM BKN040 BECMG 2010/2012 30015G25KT RMK NXT FCST BY 201200Z

Oct-20@
06:00 UTC

Oct-20 @ 06:00 UTC

Oct-20@
10:00 UTC

Oct-20 @ 10:00 UTC

TAF CYQY 200539Z 2006/2018 29010KT P6SM BKN040
Wind
  • 290° at 10 KTS
Cloud Levels
  • Broken at 4,000' AGL

Oct-20@
10:00 UTC

Oct-20 @ 10:00 UTC

Oct-20@
18:00 UTC

Oct-20 @ 18:00 UTC

BECMG 2010/2012 30015G25KT RMK NXT FCST BY 201200Z

Becoming

Becoming Conditions expected by Sun, Oct 20, 2019 @ 12:00 UTC

Wind
  • 300° at 15 KTS
  • {Gusting to 25 KTS
Cloud Levels
  • Broken at 4,000' AGL